createdAt,value
2018-04-02T00:00:57.162Z,0
2018-04-02T00:01:57.122Z,0
2018-04-02T00:02:57.101Z,0
2018-04-02T00:03:56.822Z,0
2018-04-02T00:04:57.051Z,0
2018-04-02T00:05:57.016Z,0
2018-04-02T00:06:56.991Z,0
2018-04-02T00:07:56.959Z,0
2018-04-02T00:08:57.079Z,0
2018-04-02T00:09:56.900Z,0
2018-04-02T00:10:56.881Z,0
2018-04-02T00:11:56.351Z,0
2018-04-02T00:12:56.579Z,0
2018-04-02T00:13:56.802Z,0
2018-04-02T00:14:56.531Z,0
2018-04-02T00:15:56.511Z,0
2018-04-02T00:16:56.470Z,0
2018-04-02T00:17:56.437Z,0
2018-04-02T00:18:56.411Z,0
2018-04-02T00:19:56.137Z,0
2018-04-02T00:20:56.608Z,0
2018-04-02T00:21:56.586Z,0
2018-04-02T00:22:56.305Z,0
2018-04-02T00:23:56.296Z,0
2018-04-02T00:24:56.506Z,0
2018-04-02T00:25:56.468Z,0
2018-04-02T00:26:56.201Z,0
2018-04-02T00:27:56.168Z,0
2018-04-02T00:28:56.392Z,0
2018-04-02T00:29:56.368Z,0
2018-04-02T00:30:55.844Z,0
2018-04-02T00:31:56.307Z,0
2018-04-02T00:32:56.036Z,0
2018-04-02T00:33:56.247Z,0
2018-04-02T00:34:56.223Z,0
2018-04-02T00:35:56.201Z,0
2018-04-02T00:36:56.172Z,0
2018-04-02T00:37:56.149Z,0
2018-04-02T00:38:55.868Z,0
2018-04-02T00:39:56.086Z,0
2018-04-02T00:40:56.054Z,0
2018-04-02T00:41:56.032Z,0
2018-04-02T00:42:55.519Z,0
2018-04-02T00:43:55.976Z,0
2018-04-02T00:44:55.698Z,0
2018-04-02T00:45:55.919Z,0
2018-04-02T00:46:55.895Z,0
2018-04-02T00:47:55.879Z,0
2018-04-02T00:48:55.707Z,0
2018-04-02T00:49:55.565Z,0
2018-04-02T00:50:55.287Z,0
2018-04-02T00:51:55.759Z,0
2018-04-02T00:52:55.736Z,0
2018-04-02T00:53:55.456Z,0
2018-04-02T00:54:55.423Z,0
2018-04-02T00:55:55.396Z,0
2018-04-02T00:56:55.623Z,0
2018-04-02T00:57:55.594Z,0
2018-04-02T00:58:55.317Z,0
2018-04-02T00:59:55.283Z,0
2018-04-02T01:00:55.508Z,0
2018-04-02T01:01:55.478Z,0
2018-04-02T01:02:55.206Z,0
2018-04-02T01:03:55.174Z,0
2018-04-02T01:04:55.398Z,0
2018-04-02T01:05:55.370Z,0
2018-04-02T01:06:55.348Z,0
2018-04-02T01:07:55.073Z,0
2018-04-02T01:08:55.294Z,0
2018-04-02T01:09:55.264Z,0
2018-04-02T01:10:54.980Z,0
2018-04-02T01:11:54.955Z,0
2018-04-02T01:12:55.597Z,0
2018-04-02T01:13:55.148Z,0
2018-04-02T01:14:55.122Z,0
2018-04-02T01:15:55.097Z,0
2018-04-02T01:16:55.063Z,0
2018-04-02T01:17:55.032Z,0
2018-04-02T01:18:55.014Z,0
2018-04-02T01:19:54.977Z,0
2018-04-02T01:20:54.956Z,0
2018-04-02T01:21:54.929Z,0
2018-04-02T01:22:54.650Z,0
2018-04-02T01:23:54.623Z,0
2018-04-02T01:24:54.842Z,0
2018-04-02T01:25:54.823Z,0
2018-04-02T01:26:54.795Z,0
2018-04-02T01:27:54.261Z,0
2018-04-02T01:28:54.479Z,0
2018-04-02T01:29:54.717Z,0
2018-04-02T01:30:54.740Z,0
2018-04-02T01:31:54.404Z,0
2018-04-02T01:32:54.642Z,0
2018-04-02T01:33:54.362Z,0
2018-04-02T01:34:54.330Z,0
2018-04-02T01:35:54.546Z,0
2018-04-02T01:36:54.511Z,0
2018-04-02T01:37:54.486Z,0
2018-04-02T01:38:54.447Z,0
2018-04-02T01:39:54.430Z,0
2018-04-02T01:40:54.409Z,0
2018-04-02T01:41:54.127Z,0
2018-04-02T01:42:54.342Z,0
2018-04-02T01:43:54.313Z,0
2018-04-02T01:44:54.043Z,0
2018-04-02T01:45:54.260Z,0
2018-04-02T01:46:53.978Z,0
2018-04-02T01:47:53.759Z,0
2018-04-02T01:48:55.182Z,0
2018-04-02T01:49:53.898Z,0
2018-04-02T01:50:53.873Z,0
2018-04-02T01:51:53.591Z,0
2018-04-02T01:52:54.065Z,0
2018-04-02T01:53:53.787Z,0
2018-04-02T01:54:53.763Z,0
2018-04-02T01:55:53.979Z,0
2018-04-02T01:56:53.501Z,0
2018-04-02T01:57:53.919Z,0
2018-04-02T01:58:53.897Z,0
2018-04-02T01:59:53.872Z,0
2018-04-02T02:00:53.594Z,0
2018-04-02T02:01:53.810Z,0
2018-04-02T02:02:53.785Z,0
2018-04-02T02:03:53.753Z,0
2018-04-02T02:04:53.475Z,0
2018-04-02T02:05:53.703Z,0
2018-04-02T02:06:53.667Z,0
2018-04-02T02:07:53.390Z,0
2018-04-02T02:08:53.363Z,0
2018-04-02T02:09:53.587Z,0
2018-04-02T02:10:53.305Z,0
2018-04-02T02:11:53.279Z,0
2018-04-02T02:12:53.505Z,0
2018-04-02T02:13:53.566Z,0
2018-04-02T02:14:53.193Z,0
2018-04-02T02:15:53.418Z,0
2018-04-02T02:16:53.386Z,0
2018-04-02T02:17:53.363Z,0
2018-04-02T02:18:53.330Z,0
2018-04-02T02:19:53.053Z,0
2018-04-02T02:20:53.283Z,0
2018-04-02T02:21:52.991Z,0
2018-04-02T02:22:53.224Z,0
2018-04-02T02:23:52.691Z,0
2018-04-02T02:24:53.179Z,0
2018-04-02T02:25:53.128Z,0
2018-04-02T02:26:52.849Z,0
2018-04-02T02:27:53.074Z,0
2018-04-02T02:28:52.800Z,0
2018-04-02T02:29:53.009Z,0
2018-04-02T02:30:52.738Z,0
2018-04-02T02:31:52.714Z,0
2018-04-02T02:32:52.696Z,0
2018-04-02T02:33:52.651Z,0
2018-04-02T02:34:52.640Z,0
2018-04-02T02:35:52.840Z,0
2018-04-02T02:36:52.817Z,0
2018-04-02T02:37:52.795Z,0
2018-04-02T02:38:52.753Z,0
2018-04-02T02:39:52.476Z,0
2018-04-02T02:40:52.447Z,0
2018-04-02T02:41:52.678Z,0
2018-04-02T02:42:52.652Z,0
2018-04-02T02:43:52.615Z,0
2018-04-02T02:44:52.580Z,0
2018-04-02T02:45:52.558Z,0
2018-04-02T02:46:52.535Z,0
2018-04-02T02:47:52.495Z,0
2018-04-02T02:48:52.479Z,0
2018-04-02T02:49:51.952Z,0
2018-04-02T02:50:52.167Z,0
2018-04-02T02:51:52.382Z,0
2018-04-02T02:52:52.094Z,0
2018-04-02T02:53:52.090Z,0
2018-04-02T02:54:52.044Z,0
2018-04-02T02:55:52.262Z,0
2018-04-02T02:56:52.244Z,0
2018-04-02T02:57:52.222Z,0
2018-04-02T02:58:51.927Z,0
2018-04-02T02:59:52.151Z,0
2018-04-02T03:00:52.125Z,0
2018-04-02T03:01:52.083Z,0
2018-04-02T03:02:51.558Z,0
2018-04-02T03:03:52.027Z,0
2018-04-02T03:04:51.744Z,0
2018-04-02T03:05:51.983Z,0
2018-04-02T03:06:51.697Z,0
2018-04-02T03:07:51.409Z,0
2018-04-02T03:08:51.633Z,0
2018-04-02T03:09:51.844Z,0
2018-04-02T03:10:51.819Z,0
2018-04-02T03:11:51.543Z,0
2018-04-02T03:12:51.759Z,0
2018-04-02T03:13:51.478Z,0
2018-04-02T03:14:51.703Z,0
2018-04-02T03:15:51.673Z,0
2018-04-02T03:16:51.396Z,0
2018-04-02T03:17:51.612Z,0
2018-04-02T03:18:51.342Z,0
2018-04-02T03:19:51.306Z,0
2018-04-02T03:20:51.531Z,0
2018-04-02T03:21:51.486Z,0
2018-04-02T03:22:51.466Z,0
2018-04-02T03:23:51.437Z,0
2018-04-02T03:24:51.405Z,0
2018-04-02T03:25:51.125Z,0
2018-04-02T03:26:51.355Z,0
2018-04-02T03:27:51.330Z,0
2018-04-02T03:28:51.287Z,0
2018-04-02T03:29:51.010Z,0
2018-04-02T03:30:50.995Z,0
2018-04-02T03:31:51.212Z,0
2018-04-02T03:32:51.169Z,0
2018-04-02T03:33:50.891Z,0
2018-04-02T03:34:51.127Z,0
2018-04-02T03:35:51.080Z,0
2018-04-02T03:36:51.053Z,0
2018-04-02T03:37:51.023Z,0
2018-04-02T03:38:50.998Z,0
2018-04-02T03:39:50.972Z,0
2018-04-02T03:40:50.929Z,0
2018-04-02T03:41:50.662Z,0
2018-04-02T03:42:50.876Z,0
2018-04-02T03:43:50.848Z,0
2018-04-02T03:44:50.822Z,0
2018-04-02T03:45:50.892Z,0
2018-04-02T03:46:50.755Z,0
2018-04-02T03:47:50.736Z,0
2018-04-02T03:48:50.704Z,0
2018-04-02T03:49:50.423Z,0
2018-04-02T03:50:50.643Z,0
2018-04-02T03:51:50.607Z,0
2018-04-02T03:52:50.340Z,0
2018-04-02T03:53:50.554Z,0
2018-04-02T03:54:50.521Z,0
2018-04-02T03:55:50.592Z,0
2018-04-02T03:56:50.472Z,0
2018-04-02T03:57:50.191Z,0
2018-04-02T03:58:50.410Z,0
2018-04-02T03:59:50.131Z,0
2018-04-02T04:00:50.361Z,0
2018-04-02T04:01:50.325Z,0
2018-04-02T04:02:50.288Z,0
2018-04-02T04:03:50.265Z,0
2018-04-02T04:04:50.232Z,0
2018-04-02T04:05:50.200Z,0
2018-04-02T04:06:50.172Z,0
2018-04-02T04:07:50.144Z,0
2018-04-02T04:08:50.109Z,0
2018-04-02T04:09:49.835Z,0
2018-04-02T04:10:50.053Z,0
2018-04-02T04:11:50.129Z,0
2018-04-02T04:12:49.994Z,0
2018-04-02T04:13:49.978Z,0
2018-04-02T04:14:49.958Z,0
2018-04-02T04:15:49.702Z,0
2018-04-02T04:16:49.879Z,0
2018-04-02T04:17:49.613Z,0
2018-04-02T04:18:49.829Z,0
2018-04-02T04:19:49.793Z,0
2018-04-02T04:20:49.760Z,0
2018-04-02T04:21:49.479Z,0
2018-04-02T04:22:49.448Z,0
2018-04-02T04:23:49.179Z,0
2018-04-02T04:24:49.642Z,0
2018-04-02T04:25:49.615Z,0
2018-04-02T04:26:49.345Z,0
2018-04-02T04:27:49.307Z,0
2018-04-02T04:28:49.285Z,4
2018-04-02T04:29:49.000Z,4
2018-04-02T04:30:49.461Z,0
2018-04-02T04:31:48.943Z,0
2018-04-02T04:32:49.415Z,4
2018-04-02T04:33:49.387Z,4
2018-04-02T04:34:49.345Z,0
2018-04-02T04:35:49.070Z,4
2018-04-02T04:36:49.286Z,4
2018-04-02T04:37:49.264Z,4
2018-04-02T04:38:49.238Z,4
2018-04-02T04:39:48.705Z,8
2018-04-02T04:40:48.676Z,4
2018-04-02T04:41:49.147Z,12
2018-04-02T04:42:49.170Z,8
2018-04-02T04:43:48.833Z,12
2018-04-02T04:44:48.813Z,16
2018-04-02T04:45:49.037Z,20
2018-04-02T04:46:49.005Z,28
2018-04-02T04:47:48.980Z,32
2018-04-02T04:48:48.694Z,40
2018-04-02T04:49:48.675Z,48
2018-04-02T04:50:48.883Z,64
2018-04-02T04:51:48.854Z,76
2018-04-02T04:52:48.824Z,84
2018-04-02T04:53:48.552Z,104
2018-04-02T04:54:48.784Z,120
2018-04-02T04:55:48.740Z,140
2018-04-02T04:56:48.720Z,160
2018-04-02T04:57:48.681Z,180
2018-04-02T04:58:48.663Z,204
2018-04-02T04:59:48.381Z,232
2018-04-02T05:00:48.609Z,264
2018-04-02T05:01:48.072Z,292
2018-04-02T05:02:48.537Z,324
2018-04-02T05:03:48.512Z,360
2018-04-02T05:04:48.474Z,396
2018-04-02T05:05:48.462Z,436
2018-04-02T05:06:48.434Z,472
2018-04-02T05:07:48.395Z,516
2018-04-02T05:08:48.117Z,564
2018-04-02T05:09:48.087Z,612
2018-04-02T05:10:48.076Z,668
2018-04-02T05:11:48.280Z,724
2018-04-02T05:12:48.243Z,792
2018-04-02T05:13:48.222Z,860
2018-04-02T05:14:48.190Z,928
2018-04-02T05:15:48.162Z,1000
2018-04-02T05:16:47.883Z,1068
2018-04-02T05:17:48.164Z,1136
2018-04-02T05:18:47.831Z,1212
2018-04-02T05:19:48.046Z,1284
2018-04-02T05:20:48.023Z,1356
2018-04-02T05:21:47.736Z,1420
2018-04-02T05:22:48.061Z,1488
2018-04-02T05:23:47.438Z,1568
2018-04-02T05:24:47.917Z,1660
2018-04-02T05:25:47.636Z,1756
2018-04-02T05:26:47.857Z,1860
2018-04-02T05:27:47.816Z,1956
2018-04-02T05:28:47.542Z,2056
2018-04-02T05:29:47.263Z,2156
2018-04-02T05:30:47.734Z,2256
2018-04-02T05:31:47.696Z,2372
2018-04-02T05:32:47.175Z,2484
2018-04-02T05:33:47.638Z,2596
2018-04-02T05:34:47.611Z,2700
2018-04-02T05:35:47.343Z,2792
2018-04-02T05:36:47.554Z,2892
2018-04-02T05:37:47.274Z,3000
2018-04-02T05:38:47.544Z,3096
2018-04-02T05:39:47.604Z,3172
2018-04-02T05:40:47.481Z,3240
2018-04-02T05:41:47.155Z,3308
2018-04-02T05:42:47.389Z,3432
2018-04-02T05:43:47.351Z,3572
2018-04-02T05:44:47.083Z,3660
2018-04-02T05:45:47.290Z,3732
2018-04-02T05:46:47.016Z,3784
2018-04-02T05:47:47.243Z,3824
2018-04-02T05:48:46.710Z,3908
2018-04-02T05:49:47.173Z,3996
2018-04-02T05:50:46.899Z,4092
2018-04-02T05:51:46.870Z,4160
2018-04-02T05:52:47.087Z,4212
2018-04-02T05:53:46.814Z,4260
2018-04-02T05:54:47.037Z,4320
2018-04-02T05:55:47.011Z,4380
2018-04-02T05:56:46.978Z,4396
2018-04-02T05:57:47.002Z,4432
2018-04-02T05:58:46.421Z,4436
2018-04-02T05:59:47.009Z,4448
2018-04-02T06:00:46.619Z,4464
2018-04-02T06:01:46.336Z,4512
2018-04-02T06:02:46.557Z,4616
2018-04-02T06:03:46.530Z,4744
2018-04-02T06:04:46.750Z,4848
2018-04-02T06:05:46.224Z,4888
2018-04-02T06:06:46.728Z,4868
2018-04-02T06:07:46.666Z,4896
2018-04-02T06:08:46.387Z,4884
2018-04-02T06:09:46.664Z,5024
2018-04-02T06:10:46.581Z,5080
2018-04-02T06:11:46.307Z,5260
2018-04-02T06:12:46.520Z,5568
2018-04-02T06:13:46.530Z,6020
2018-04-02T06:14:46.510Z,6576
2018-04-02T06:15:46.445Z,7164
2018-04-02T06:16:46.272Z,7788
2018-04-02T06:17:46.384Z,8384
2018-04-02T06:18:46.407Z,9052
2018-04-02T06:19:46.078Z,9236
2018-04-02T06:20:46.293Z,9220
2018-04-02T06:21:46.020Z,9040
2018-04-02T06:22:46.244Z,9012
2018-04-02T06:23:45.967Z,9000
2018-04-02T06:24:46.189Z,8976
2018-04-02T06:25:46.164Z,9020
2018-04-02T06:26:45.890Z,9028
2018-04-02T06:27:46.104Z,8980
2018-04-02T06:28:46.080Z,8904
2018-04-02T06:29:45.805Z,8828
2018-04-02T06:30:46.024Z,8736
2018-04-02T06:31:46.091Z,8660
2018-04-02T06:32:45.726Z,8672
2018-04-02T06:33:45.697Z,8808
2018-04-02T06:34:45.922Z,9068
2018-04-02T06:35:45.892Z,9276
2018-04-02T06:36:45.858Z,9384
2018-04-02T06:37:45.854Z,9456
2018-04-02T06:38:45.807Z,9552
2018-04-02T06:39:45.580Z,9716
2018-04-02T06:40:45.266Z,9912
2018-04-02T06:41:45.729Z,10124
2018-04-02T06:42:45.456Z,10228
2018-04-02T06:43:45.679Z,10264
2018-04-02T06:44:45.407Z,10260
2018-04-02T06:45:45.378Z,10228
2018-04-02T06:46:45.357Z,10208
2018-04-02T06:47:45.573Z,10200
2018-04-02T06:48:45.562Z,10360
2018-04-02T06:49:45.525Z,10680
2018-04-02T06:50:45.509Z,11040
2018-04-02T06:51:45.223Z,11320
2018-04-02T06:52:44.950Z,11520
2018-04-02T06:53:45.417Z,11620
2018-04-02T06:54:45.155Z,11528
2018-04-02T06:55:44.873Z,11392
2018-04-02T06:56:45.090Z,11384
2018-04-02T06:57:45.070Z,11460
2018-04-02T06:58:45.045Z,11616
2018-04-02T06:59:45.017Z,11952
2018-04-02T07:00:44.988Z,12184
2018-04-02T07:01:45.214Z,12324
2018-04-02T07:02:45.208Z,12444
2018-04-02T07:03:44.911Z,12600
2018-04-02T07:04:45.136Z,12728
2018-04-02T07:05:45.113Z,12828
2018-04-02T07:06:44.863Z,12856
2018-04-02T07:07:45.057Z,12848
2018-04-02T07:08:45.044Z,12636
2018-04-02T07:09:45.019Z,12516
2018-04-02T07:10:44.746Z,12396
2018-04-02T07:11:44.469Z,12128
2018-04-02T07:12:44.958Z,11776
2018-04-02T07:13:44.917Z,11528
2018-04-02T07:14:44.889Z,11496
2018-04-02T07:15:44.616Z,11552
2018-04-02T07:16:44.594Z,11520
2018-04-02T07:17:44.570Z,11300
2018-04-02T07:18:44.545Z,10808
2018-04-02T07:19:44.763Z,10160
2018-04-02T07:20:44.743Z,9780
2018-04-02T07:21:44.727Z,10032
2018-04-02T07:22:44.710Z,11048
2018-04-02T07:23:44.672Z,12452
2018-04-02T07:24:44.647Z,13668
2018-04-02T07:25:44.379Z,14264
2018-04-02T07:26:44.351Z,15228
2018-04-02T07:27:44.079Z,16380
2018-04-02T07:28:44.304Z,18592
2018-04-02T07:29:44.516Z,19584
2018-04-02T07:30:44.253Z,20704
2018-04-02T07:31:44.228Z,20832
2018-04-02T07:32:44.450Z,20320
2018-04-02T07:33:44.425Z,19360
2018-04-02T07:34:44.157Z,18144
2018-04-02T07:35:44.391Z,16636
2018-04-02T07:36:44.424Z,16376
2018-04-02T07:37:44.343Z,16984
2018-04-02T07:38:44.068Z,18400
2018-04-02T07:39:44.308Z,19488
2018-04-02T07:40:44.015Z,19648
2018-04-02T07:41:43.739Z,19072
2018-04-02T07:42:44.224Z,18368
2018-04-02T07:43:44.193Z,18016
2018-04-02T07:44:44.171Z,18080
2018-04-02T07:45:44.148Z,18112
2018-04-02T07:46:43.871Z,17856
2018-04-02T07:47:44.097Z,17568
2018-04-02T07:48:43.580Z,17984
2018-04-02T07:49:44.051Z,19296
2018-04-02T07:50:44.227Z,20192
2018-04-02T07:51:43.763Z,20288
2018-04-02T07:52:44.008Z,20160
2018-04-02T07:53:43.982Z,20256
2018-04-02T07:54:43.954Z,20672
2018-04-02T07:55:43.929Z,21088
2018-04-02T07:56:43.898Z,21056
2018-04-02T07:57:43.873Z,21248
2018-04-02T07:58:43.603Z,21536
2018-04-02T07:59:43.837Z,21696
2018-04-02T08:00:43.807Z,21888
2018-04-02T08:01:43.796Z,22240
2018-04-02T08:02:43.880Z,22432
2018-04-02T08:03:43.497Z,22688
2018-04-02T08:04:43.238Z,22816
2018-04-02T08:05:43.818Z,23072
2018-04-02T08:06:43.688Z,23744
2018-04-02T08:07:43.416Z,24256
2018-04-02T08:08:43.453Z,24480
2018-04-02T08:09:43.376Z,24224
2018-04-02T08:10:43.601Z,23552
2018-04-02T08:11:43.584Z,22752
2018-04-02T08:12:43.329Z,22112
2018-04-02T08:13:43.041Z,22048
2018-04-02T08:14:43.524Z,21824
2018-04-02T08:15:43.514Z,21216
2018-04-02T08:16:43.230Z,20736
2018-04-02T08:17:43.203Z,20480
2018-04-02T08:18:43.434Z,20608
2018-04-02T08:19:43.410Z,14696
2018-04-02T08:20:43.147Z,21184
2018-04-02T08:21:42.875Z,21280
2018-04-02T08:22:43.355Z,21152
2018-04-02T08:23:43.330Z,21056
2018-04-02T08:24:43.311Z,21408
2018-04-02T08:25:43.386Z,22656
2018-04-02T08:26:43.027Z,24352
2018-04-02T08:27:43.251Z,26016
2018-04-02T08:28:42.731Z,27232
2018-04-02T08:29:43.207Z,25344
2018-04-02T08:30:43.190Z,25632
2018-04-02T08:31:42.669Z,24640
2018-04-02T08:32:43.343Z,23968
2018-04-02T08:33:43.127Z,23008
2018-04-02T08:34:43.109Z,22720
2018-04-02T08:35:42.840Z,22848
2018-04-02T08:36:43.071Z,23072
2018-04-02T08:37:42.802Z,22240
2018-04-02T08:38:43.200Z,21600
2018-04-02T08:39:43.013Z,21664
2018-04-02T08:40:42.748Z,22272
2018-04-02T08:41:42.969Z,23200
2018-04-02T08:42:42.700Z,24064
2018-04-02T08:43:42.681Z,24864
2018-04-02T08:44:42.659Z,26048
2018-04-02T08:45:42.393Z,26912
2018-04-02T08:46:42.882Z,27392
2018-04-02T08:47:42.850Z,27456
2018-04-02T08:48:42.577Z,26240
2018-04-02T08:49:42.315Z,24352
2018-04-02T08:50:42.792Z,23744
2018-04-02T08:51:42.777Z,25184
2018-04-02T08:52:42.253Z,26688
2018-04-02T08:53:42.484Z,26912
2018-04-02T08:54:42.722Z,26720
2018-04-02T08:55:42.701Z,26304
2018-04-02T08:56:42.434Z,26848
2018-04-02T08:57:42.405Z,28640
2018-04-02T08:58:42.395Z,29152
2018-04-02T08:59:42.622Z,28064
2018-04-02T09:00:42.466Z,26656
2018-04-02T09:01:42.575Z,25504
2018-04-02T09:02:42.316Z,26016
2018-04-02T09:03:42.562Z,27520
2018-04-02T09:04:42.534Z,28096
2018-04-02T09:05:42.520Z,28096
2018-04-02T09:06:42.247Z,27616
2018-04-02T09:07:42.476Z,27872
2018-04-02T09:08:42.215Z,28576
2018-04-02T09:09:42.459Z,28288
2018-04-02T09:10:42.418Z,28256
2018-04-02T09:11:42.158Z,27584
2018-04-02T09:12:42.138Z,27424
2018-04-02T09:13:42.118Z,27360
2018-04-02T09:14:42.373Z,27072
2018-04-02T09:15:42.330Z,26976
2018-04-02T09:16:42.324Z,26784
2018-04-02T09:17:42.306Z,26432
2018-04-02T09:18:41.784Z,26592
2018-04-02T09:19:42.284Z,27328
2018-04-02T09:20:41.989Z,27584
2018-04-02T09:21:42.230Z,27392
2018-04-02T09:22:42.209Z,27552
2018-04-02T09:23:41.945Z,27808
2018-04-02T09:24:41.944Z,27968
2018-04-02T09:25:41.930Z,27904
2018-04-02T09:26:42.148Z,28000
2018-04-02T09:27:41.878Z,28928
2018-04-02T09:28:41.866Z,29600
2018-04-02T09:29:41.842Z,29440
2018-04-02T09:30:42.077Z,29632
2018-04-02T09:31:41.555Z,30592
2018-04-02T09:32:42.040Z,31328
2018-04-02T09:33:42.045Z,31424
2018-04-02T09:34:41.760Z,32064
2018-04-02T09:35:41.986Z,32256
2018-04-02T09:36:42.181Z,31168
2018-04-02T09:37:41.714Z,30848
2018-04-02T09:38:41.693Z,30912
2018-04-02T09:39:41.923Z,30432
2018-04-02T09:40:41.908Z,29568
2018-04-02T09:41:41.660Z,28928
2018-04-02T09:42:41.874Z,28608
2018-04-02T09:43:41.367Z,28672
2018-04-02T09:44:41.845Z,28896
2018-04-02T09:45:41.832Z,29088
2018-04-02T09:46:41.567Z,28960
2018-04-02T09:47:41.907Z,28288
2018-04-02T09:48:41.544Z,27552
2018-04-02T09:49:41.777Z,27072
2018-04-02T09:50:41.753Z,26560
2018-04-02T09:51:41.493Z,26176
2018-04-02T09:52:41.718Z,26144
2018-04-02T09:53:41.718Z,26688
2018-04-02T09:54:41.686Z,27808
2018-04-02T09:55:41.424Z,28864
2018-04-02T09:56:41.158Z,30304
2018-04-02T09:57:41.639Z,31904
2018-04-02T09:58:41.625Z,32480
2018-04-02T09:59:41.362Z,32672
2018-04-02T10:00:41.356Z,31104
2018-04-02T10:01:41.584Z,31872
2018-04-02T10:02:41.562Z,33344
2018-04-02T10:03:41.295Z,33856
2018-04-02T10:04:41.711Z,33344
2018-04-02T10:05:41.522Z,31584
2018-04-02T10:06:41.003Z,30912
2018-04-02T10:07:41.236Z,31904
2018-04-02T10:08:41.478Z,31360
2018-04-02T10:09:41.206Z,28608
2018-04-02T10:10:41.572Z,27232
2018-04-02T10:11:41.431Z,27648
2018-04-02T10:12:41.812Z,26880
2018-04-02T10:13:40.904Z,26656
2018-04-02T10:14:41.144Z,28544
2018-04-02T10:15:41.229Z,29728
2018-04-02T10:16:41.753Z,29632
2018-04-02T10:17:41.960Z,28768
2018-04-02T10:18:41.328Z,27680
2018-04-02T10:19:41.324Z,26784
2018-04-02T10:20:41.144Z,26656
2018-04-02T10:21:41.032Z,26848
2018-04-02T10:22:41.263Z,27264
2018-04-02T10:23:41.011Z,28864
2018-04-02T10:24:41.234Z,29120
2018-04-02T10:25:41.221Z,27680
2018-04-02T10:26:41.209Z,26304
2018-04-02T10:27:41.193Z,25600
2018-04-02T10:28:40.675Z,25760
2018-04-02T10:29:41.191Z,25952
2018-04-02T10:30:41.144Z,25344
2018-04-02T10:31:41.138Z,24096
2018-04-02T10:32:40.887Z,24480
2018-04-02T10:33:41.100Z,25504
2018-04-02T10:34:41.086Z,25696
2018-04-02T10:35:41.071Z,25792
2018-04-02T10:36:41.190Z,25536
2018-04-02T10:37:41.044Z,25664
2018-04-02T10:38:40.774Z,26144
2018-04-02T10:39:40.516Z,27008
2018-04-02T10:40:41.052Z,27616
2018-04-02T10:41:40.741Z,27840
2018-04-02T10:42:40.964Z,27616
2018-04-02T10:43:40.956Z,26016
2018-04-02T10:44:40.682Z,26848
2018-04-02T10:45:40.667Z,28448
2018-04-02T10:46:40.652Z,29568
2018-04-02T10:47:40.886Z,30272
2018-04-02T10:48:40.765Z,30784
2018-04-02T10:49:40.863Z,32192
2018-04-02T10:50:40.846Z,33760
2018-04-02T10:51:40.620Z,34496
2018-04-02T10:52:40.817Z,35072
2018-04-02T10:53:40.792Z,34848
2018-04-02T10:54:40.783Z,33024
2018-04-02T10:55:40.775Z,32320
2018-04-02T10:56:40.509Z,32256
2018-04-02T10:57:40.748Z,32032
2018-04-02T10:58:40.475Z,32736
2018-04-02T10:59:40.266Z,32992
2018-04-02T11:00:40.692Z,32288
2018-04-02T11:01:40.723Z,30752
2018-04-02T11:02:40.424Z,29920
2018-04-02T11:03:40.407Z,30080
2018-04-02T11:04:40.647Z,30592
2018-04-02T11:05:40.783Z,31392
2018-04-02T11:06:40.617Z,31680
2018-04-02T11:07:40.109Z,31648
2018-04-02T11:08:40.091Z,32288
2018-04-02T11:09:40.321Z,32992
2018-04-02T11:10:40.557Z,34240
2018-04-02T11:11:40.307Z,36032
2018-04-02T11:12:40.587Z,36704
2018-04-02T11:13:40.275Z,36352
2018-04-02T11:14:40.504Z,35328
2018-04-02T11:15:40.502Z,34912
2018-04-02T11:16:40.548Z,34976
2018-04-02T11:17:40.226Z,35200
2018-04-02T11:18:39.990Z,35424
2018-04-02T11:19:40.446Z,35328
2018-04-02T11:20:40.437Z,35072
2018-04-02T11:21:40.420Z,34048
2018-04-02T11:22:39.918Z,32864
2018-04-02T11:23:40.420Z,32352
2018-04-02T11:24:40.392Z,32576
2018-04-02T11:25:40.133Z,33024
2018-04-02T11:26:39.861Z,33504
2018-04-02T11:27:40.337Z,33952
2018-04-02T11:28:40.082Z,34048
2018-04-02T11:29:40.318Z,33888
2018-04-02T11:30:40.305Z,33408
2018-04-02T11:31:40.293Z,32800
2018-04-02T11:32:40.041Z,32736
2018-04-02T11:33:40.269Z,33024
2018-04-02T11:34:40.258Z,32704
2018-04-02T11:35:40.000Z,31040
2018-04-02T11:36:40.231Z,30368
2018-04-02T11:37:40.220Z,30592
2018-04-02T11:38:39.959Z,31040
2018-04-02T11:39:40.207Z,30272
2018-04-02T11:40:40.200Z,29856
2018-04-02T11:41:40.165Z,30912
2018-04-02T11:42:39.908Z,32800
2018-04-02T11:43:40.151Z,35200
2018-04-02T11:44:39.887Z,37504
2018-04-02T11:45:40.126Z,36960
2018-04-02T11:46:40.101Z,34752
2018-04-02T11:47:39.849Z,31552
2018-04-02T11:48:40.087Z,28640
2018-04-02T11:49:39.573Z,26944
2018-04-02T11:50:39.562Z,26688
2018-04-02T11:51:40.048Z,27392
2018-04-02T11:52:40.035Z,29376
2018-04-02T11:53:40.024Z,30368
2018-04-02T11:54:39.757Z,31168
2018-04-02T11:55:40.009Z,31488
2018-04-02T11:56:39.982Z,31104
2018-04-02T11:57:39.729Z,30496
2018-04-02T11:58:39.862Z,28192
2018-04-02T11:59:40.185Z,25920
2018-04-02T12:00:39.976Z,24896
2018-04-02T12:01:39.686Z,25728
2018-04-02T12:02:39.675Z,27328
2018-04-02T12:03:39.904Z,29344
2018-04-02T12:04:39.892Z,31296
2018-04-02T12:05:39.878Z,31808
2018-04-02T12:06:39.615Z,32096
2018-04-02T12:07:39.599Z,32576
2018-04-02T12:08:39.596Z,32768
2018-04-02T12:09:39.825Z,32448
2018-04-02T12:10:39.558Z,30976
2018-04-02T12:11:39.815Z,28736
2018-04-02T12:12:39.782Z,27680
2018-04-02T12:13:39.773Z,27616
2018-04-02T12:14:39.763Z,28128
2018-04-02T12:15:39.757Z,28448
2018-04-02T12:16:39.739Z,29408
2018-04-02T12:17:39.488Z,30592
2018-04-02T12:18:39.471Z,30848
2018-04-02T12:19:39.740Z,31232
2018-04-02T12:20:39.459Z,30848
2018-04-02T12:21:39.768Z,30624
2018-04-02T12:22:39.420Z,30816
2018-04-02T12:23:39.401Z,31168
2018-04-02T12:24:39.645Z,31584
2018-04-02T12:25:39.651Z,32192
2018-04-02T12:26:39.614Z,31584
2018-04-02T12:27:39.669Z,30592
2018-04-02T12:28:39.340Z,29600
2018-04-02T12:29:39.335Z,27936
2018-04-02T12:30:39.324Z,26880
2018-04-02T12:31:39.564Z,26752
2018-04-02T12:32:39.539Z,27008
2018-04-02T12:33:39.418Z,27936
2018-04-02T12:34:39.536Z,29856
2018-04-02T12:35:39.511Z,31840
2018-04-02T12:36:39.296Z,33408
2018-04-02T12:37:39.233Z,34048
2018-04-02T12:38:39.521Z,34336
2018-04-02T12:39:39.459Z,34560
2018-04-02T12:40:39.220Z,32800
2018-04-02T12:41:39.180Z,29952
2018-04-02T12:42:39.418Z,29088
2018-04-02T12:43:39.434Z,32096
2018-04-02T12:44:40.224Z,31488
2018-04-02T12:45:39.385Z,29248
2018-04-02T12:46:39.363Z,26784
2018-04-02T12:47:39.359Z,24480
2018-04-02T12:48:38.846Z,22688
2018-04-02T12:49:39.339Z,21824
2018-04-02T12:50:39.317Z,22048
2018-04-02T12:51:39.053Z,23072
2018-04-02T12:52:39.303Z,24192
2018-04-02T12:53:39.081Z,26368
2018-04-02T12:54:39.271Z,29344
2018-04-02T12:55:38.760Z,30528
2018-04-02T12:56:39.267Z,30400
2018-04-02T12:57:39.228Z,30304
2018-04-02T12:58:39.905Z,29600
2018-04-02T12:59:39.293Z,29376
2018-04-02T13:00:38.708Z,29120
2018-04-02T13:01:39.181Z,28128
2018-04-02T13:02:38.922Z,27168
2018-04-02T13:03:38.665Z,25760
2018-04-02T13:04:39.390Z,22976
2018-04-02T13:05:38.632Z,22880
2018-04-02T13:06:38.862Z,23328
2018-04-02T13:07:39.106Z,23456
2018-04-02T13:08:38.596Z,24672
2018-04-02T13:09:38.582Z,25248
2018-04-02T13:10:39.026Z,24992
2018-04-02T13:11:38.559Z,25632
2018-04-02T13:12:39.043Z,25184
2018-04-02T13:13:38.806Z,23072
2018-04-02T13:14:38.774Z,21728
2018-04-02T13:15:38.758Z,21728
2018-04-02T13:16:38.990Z,22464
2018-04-02T13:17:38.746Z,22496
2018-04-02T13:18:38.715Z,23072
2018-04-02T13:19:38.948Z,24096
2018-04-02T13:20:38.935Z,24928
2018-04-02T13:21:38.974Z,27552
2018-04-02T13:22:38.910Z,30016
2018-04-02T13:23:38.897Z,31104
2018-04-02T13:24:38.895Z,29792
2018-04-02T13:25:38.380Z,29376
2018-04-02T13:26:38.379Z,28576
2018-04-02T13:27:38.857Z,26944
2018-04-02T13:28:38.940Z,25344
2018-04-02T13:29:38.331Z,23744
2018-04-02T13:30:38.817Z,22560
2018-04-02T13:31:38.733Z,21600
2018-04-02T13:32:38.787Z,20576
2018-04-02T13:33:38.781Z,19136
2018-04-02T13:34:38.516Z,18816